Time;durP1;ratioP1;P1;durP2;ratioP2;P2;SDS_P1;SDS_P2;PMS_P1;PMS_P2;Temp;Humidity;BMP_temperature;BMP_pressure;BME280_temperature;BME280_humidity;BME280_pressure;Samples;Min_cycle;Max_cycle;Signal;HPM_P1;HPM_P2
2023/07/14 00:04:08;;;;;;;4.62;2.67;;;;;;;22.43;60.36;99822.41;7659437;32;39880;-79
2023/07/14 00:08:29;;;;;;;6.10;3.10;;;;;;;22.46;60.14;99829.25;7658393;32;40835;-79
2023/07/14 00:12:45;;;;;;;7.93;3.42;;;;;;;22.45;60.21;99820.09;7659381;32;37782;-80
2023/07/14 00:17:04;;;;;;;6.65;3.25;;;;;;;22.44;60.31;99832.38;7659049;32;37865;-80
2023/07/14 00:21:23;;;;;;;9.00;3.45;;;;;;;22.37;60.54;99840.50;7658066;32;38362;-80
2023/07/14 00:25:40;;;;;;;4.87;3.28;;;;;;;22.30;61.04;99840.25;7659148;32;40018;-79
2023/07/14 00:29:57;;;;;;;4.47;3.00;;;;;;;22.31;60.76;99847.44;7638329;32;37966;-79
2023/07/14 00:34:13;;;;;;;12.77;3.72;;;;;;;22.24;61.00;99853.53;7632857;32;36785;-79
2023/07/14 00:38:29;;;;;;;7.85;3.40;;;;;;;22.25;61.08;99854.34;7648056;32;39397;-79
2023/07/14 00:42:53;;;;;;;9.50;3.08;;;;;;;22.02;62.07;99854.84;7658856;32;39881;-79
2023/07/14 00:47:26;;;;;;;10.10;3.37;;;;;;;22.02;62.18;99860.38;7657624;32;38751;-79
2023/07/14 00:51:43;;;;;;;5.47;2.90;;;;;;;22.11;61.88;99865.81;7657958;32;37422;-79
2023/07/14 00:56:12;;;;;;;5.07;3.15;;;;;;;22.09;61.64;99857.84;7658939;32;39092;-79
2023/07/14 01:00:30;;;;;;;6.40;3.15;;;;;;;22.07;61.77;99856.56;7658803;32;40021;-79
2023/07/14 01:04:51;;;;;;;5.90;3.25;;;;;;;22.09;61.72;99857.84;7658749;32;38318;-79
2023/07/14 01:09:11;;;;;;;6.15;3.70;;;;;;;21.98;62.25;99867.78;7657627;32;37201;-80
2023/07/14 01:13:29;;;;;;;6.30;3.60;;;;;;;21.94;62.13;99866.88;7657615;32;40145;-79
2023/07/14 01:17:47;;;;;;;7.15;3.30;;;;;;;21.92;62.30;99870.00;7658634;32;40864;-79
2023/07/14 01:22:21;;;;;;;4.55;3.35;;;;;;;21.85;62.46;99880.88;7633538;32;38893;-79
2023/07/14 01:26:57;;;;;;;6.35;3.45;;;;;;;21.89;62.47;99880.97;7636845;32;37045;-79
2023/07/14 01:31:21;;;;;;;5.20;3.50;;;;;;;21.86;62.69;99881.66;7657841;32;37941;-80
2023/07/14 01:35:41;;;;;;;7.70;3.60;;;;;;;21.90;62.64;99879.81;7658508;32;40555;-80
2023/07/14 01:39:58;;;;;;;9.07;3.35;;;;;;;21.98;62.07;99878.91;7657176;32;38763;-80
2023/07/14 01:44:17;;;;;;;5.45;3.10;;;;;;;21.86;62.51;99882.47;7658339;32;37784;-79
2023/07/14 01:48:59;;;;;;;5.95;3.65;;;;;;;21.99;62.02;99885.25;7655977;32;40366;-80
2023/07/14 01:53:23;;;;;;;10.57;3.90;;;;;;;22.03;62.00;99884.22;7657043;32;40097;-80
2023/07/14 01:57:40;;;;;;;6.50;3.47;;;;;;;21.84;62.38;99881.22;7658307;32;38810;-79
2023/07/14 02:02:01;;;;;;;6.53;3.70;;;;;;;21.93;61.96;99887.44;7657850;32;37144;-80
2023/07/14 02:06:18;;;;;;;7.90;3.65;;;;;;;21.89;61.99;99892.09;7657010;32;39541;-79
2023/07/14 02:10:34;;;;;;;6.78;4.00;;;;;;;21.86;61.78;99887.22;7657901;32;40793;-79
2023/07/14 02:15:06;;;;;;;8.20;3.87;;;;;;;21.91;61.51;99898.09;7630269;32;38710;-79
2023/07/14 02:19:24;;;;;;;7.62;3.90;;;;;;;21.72;62.21;99904.19;7653063;32;38224;-79
2023/07/14 02:23:41;;;;;;;7.18;3.97;;;;;;;21.62;62.51;99899.88;7656690;32;39255;-79
2023/07/14 02:27:58;;;;;;;6.82;3.90;;;;;;;21.59;62.99;99911.66;7656144;32;40887;-79
2023/07/14 02:32:20;;;;;;;7.68;3.83;;;;;;;21.53;63.26;99899.19;7657194;32;37829;-79
2023/07/14 02:36:59;;;;;;;7.57;3.60;;;;;;;21.58;62.83;99904.50;7657553;32;37725;-79
2023/07/14 02:41:25;;;;;;;6.72;3.78;;;;;;;21.51;62.97;99909.81;7656327;32;39277;-80
2023/07/14 02:45:58;;;;;;;7.05;3.87;;;;;;;21.59;62.59;99902.53;7656959;32;40694;-79
2023/07/14 02:50:14;;;;;;;6.47;3.43;;;;;;;21.42;63.21;99906.28;7648168;32;38034;-79
2023/07/14 02:54:30;;;;;;;7.15;3.87;;;;;;;21.51;62.78;99920.91;7657015;32;37153;-78
2023/07/14 02:58:49;;;;;;;8.05;3.80;;;;;;;21.32;63.32;99924.19;7656993;32;39579;-79
2023/07/14 03:03:06;;;;;;;6.47;3.78;;;;;;;21.26;63.47;99929.09;7656923;32;40729;-78
2023/07/14 03:07:22;;;;;;;6.65;3.67;;;;;;;21.20;63.94;99925.72;7656590;32;38146;-79
2023/07/14 03:11:39;;;;;;;9.95;3.67;;;;;;;20.99;64.93;99922.97;7655815;32;38520;-78
2023/07/14 03:15:55;;;;;;;7.75;3.85;;;;;;;21.12;64.49;99932.16;7658717;32;39764;-79
2023/07/14 03:20:11;;;;;;;7.78;3.95;;;;;;;21.19;64.03;99937.16;7660128;32;39750;-78
2023/07/14 03:24:30;;;;;;;6.75;3.87;;;;;;;21.11;64.22;99935.25;7660406;32;37550;-79
2023/07/14 03:28:46;;;;;;;8.98;4.50;;;;;;;21.22;63.72;99938.44;7659719;32;37761;-79
2023/07/14 03:33:02;;;;;;;7.57;4.68;;;;;;;20.89;65.42;99940.03;7659915;32;39419;-79
2023/07/14 03:37:19;;;;;;;8.77;4.53;;;;;;;21.10;64.79;99945.56;7659769;32;39904;-79
2023/07/14 03:41:35;;;;;;;9.38;4.03;;;;;;;21.08;64.80;99941.50;7659663;32;38454;-79
2023/07/14 03:45:51;;;;;;;9.52;4.15;;;;;;;21.14;64.59;99945.69;7659249;32;38005;-79
2023/07/14 03:50:11;;;;;;;8.05;4.25;;;;;;;21.25;64.01;99952.44;7659714;32;39466;-79
2023/07/14 03:54:27;;;;;;;7.62;4.32;;;;;;;21.37;63.64;99941.41;7659695;32;40892;-79
2023/07/14 03:58:43;;;;;;;8.75;4.28;;;;;;;21.29;63.83;99944.25;7659540;32;38713;-79
2023/07/14 04:03:00;;;;;;;9.32;4.60;;;;;;;21.29;63.90;99947.84;7659860;32;37696;-78
2023/07/14 04:07:16;;;;;;;6.65;4.32;;;;;;;21.38;63.76;99933.88;7659393;32;39430;-79
2023/07/14 04:11:34;;;;;;;9.40;4.57;;;;;;;21.45;63.42;99931.34;7659423;32;40178;-79
2023/07/14 04:15:50;;;;;;;7.78;4.25;;;;;;;21.35;63.80;99935.38;7659042;32;39599;-79
2023/07/14 04:20:07;;;;;;;8.32;4.90;;;;;;;21.42;63.56;99934.84;7658752;32;37117;-79
2023/07/14 04:24:23;;;;;;;8.10;4.70;;;;;;;21.46;63.59;99934.97;7657872;32;39074;-79
2023/07/14 04:28:39;;;;;;;8.23;4.40;;;;;;;21.60;63.30;99941.03;7658668;32;39976;-79
2023/07/14 04:32:57;;;;;;;9.15;4.68;;;;;;;21.61;63.38;99942.69;7659100;32;38740;-79
2023/07/14 04:37:14;;;;;;;10.23;4.30;;;;;;;21.72;62.92;99943.84;7659212;32;36013;-79
2023/07/14 04:41:31;;;;;;;11.20;4.85;;;;;;;21.81;62.69;99940.97;7659038;32;39269;-79
2023/07/14 04:45:49;;;;;;;7.50;3.70;;;;;;;21.86;62.78;99946.28;7658705;32;39689;-78
2023/07/14 04:50:07;;;;;;;8.27;4.30;;;;;;;21.79;63.46;99959.12;7659111;32;36937;-78
2023/07/14 04:54:23;;;;;;;8.40;4.10;;;;;;;21.81;63.45;99962.37;7658959;32;36972;-79
2023/07/14 04:58:40;;;;;;;8.20;3.72;;;;;;;21.94;63.16;99966.78;7658881;32;39458;-79
2023/07/14 05:02:56;;;;;;;9.07;3.58;;;;;;;22.13;62.72;99978.16;7658879;32;40874;-81
2023/07/14 05:07:13;;;;;;;7.45;3.97;;;;;;;22.31;62.27;99980.75;7645242;32;37573;-79
2023/07/14 05:11:29;;;;;;;7.93;3.55;;;;;;;22.46;62.03;99979.25;7644155;32;37408;-80
2023/07/14 05:15:45;;;;;;;6.80;4.05;;;;;;;22.60;61.67;99987.22;7646466;32;40265;-68
2023/07/14 05:20:06;;;;;;;7.60;4.22;;;;;;;22.86;61.27;99984.88;7645462;32;39989;-66
2023/07/14 05:24:22;;;;;;;10.07;4.30;;;;;;;23.12;60.40;99994.81;7642965;32;37727;-67
2023/07/14 05:28:38;;;;;;;9.13;3.97;;;;;;;23.29;60.25;99990.12;7646745;32;37953;-67
2023/07/14 05:32:55;;;;;;;6.47;3.90;;;;;;;23.31;60.06;99991.38;7644642;32;39296;-67
2023/07/14 05:37:11;;;;;;;10.32;3.83;;;;;;;23.49;59.74;100003.03;7640487;32;40550;-67
2023/07/14 05:41:27;;;;;;;9.10;4.20;;;;;;;23.80;58.97;100004.25;7643082;32;37140;-68
2023/07/14 05:45:47;;;;;;;9.60;4.18;;;;;;;23.73;58.96;100004.06;7642620;32;37867;-67
2023/07/14 05:50:05;;;;;;;7.35;4.03;;;;;;;23.90;58.58;100006.56;7646122;32;39008;-68
2023/07/14 05:54:21;;;;;;;8.02;4.22;;;;;;;24.00;58.01;100006.03;7646287;32;39912;-68
2023/07/14 05:58:38;;;;;;;9.30;4.37;;;;;;;24.03;57.07;100012.09;7652900;32;38097;-68
2023/07/14 06:02:54;;;;;;;10.55;4.30;;;;;;;23.85;56.76;100012.38;7641065;32;37190;-68
2023/07/14 06:07:11;;;;;;;5.18;3.47;;;;;;;24.00;56.68;100005.25;7645577;32;40480;-69
2023/07/14 06:11:27;;;;;;;10.02;3.70;;;;;;;24.05;57.05;100009.75;7648340;32;38758;-67
2023/07/14 06:15:50;;;;;;;7.35;3.78;;;;;;;24.10;57.31;100009.47;7653632;32;38785;-67
2023/07/14 06:20:07;;;;;;;10.90;4.57;;;;;;;24.36;56.32;100014.50;7649085;32;37236;-67
2023/07/14 06:24:24;;;;;;;8.98;4.25;;;;;;;24.24;55.79;100011.81;7655130;32;39013;-67
2023/07/14 06:28:41;;;;;;;11.73;4.55;;;;;;;24.37;55.54;100010.56;7640429;32;40803;-67
2023/07/14 06:32:57;;;;;;;9.32;4.53;;;;;;;24.41;55.21;100013.44;7641031;32;37685;-67
2023/07/14 06:37:13;;;;;;;8.95;4.32;;;;;;;24.10;55.30;100026.19;7647670;32;38092;-67
2023/07/14 06:41:30;;;;;;;10.57;4.55;;;;;;;24.36;54.68;100018.09;7646450;32;40223;-67
2023/07/14 06:45:49;;;;;;;9.32;4.47;;;;;;;24.22;55.53;100016.94;7652153;32;40828;-67
2023/07/14 06:50:06;;;;;;;8.15;3.87;;;;;;;24.49;55.25;100020.78;7648753;32;38110;-68
2023/07/14 06:54:22;;;;;;;6.30;4.35;;;;;;;24.33;55.04;100023.59;7652064;32;37753;-68
2023/07/14 06:58:38;;;;;;;7.75;4.25;;;;;;;24.52;55.21;100011.72;7645167;32;39485;-68
2023/07/14 07:02:54;;;;;;;7.68;3.67;;;;;;;24.54;53.79;100012.19;7647322;32;40876;-68
2023/07/14 07:07:11;;;;;;;7.55;4.40;;;;;;;24.67;53.49;100019.28;7653046;32;38940;-67
2023/07/14 07:11:27;;;;;;;7.00;3.62;;;;;;;24.62;54.54;100016.78;7647769;32;36766;-67
2023/07/14 07:15:43;;;;;;;4.82;3.15;;;;;;;24.60;53.49;100021.91;7647154;32;39887;-68
2023/07/14 07:20:03;;;;;;;9.35;3.05;;;;;;;24.38;53.54;100018.53;7647475;32;40815;-68
2023/07/14 07:24:19;;;;;;;5.93;2.92;;;;;;;24.73;51.11;100026.22;7641362;32;37749;-67
2023/07/14 07:28:35;;;;;;;5.57;3.05;;;;;;;24.86;50.04;100028.88;7652836;32;37107;-67
2023/07/14 07:32:52;;;;;;;4.53;2.80;;;;;;;24.94;49.85;100030.66;7654151;32;40126;-67
2023/07/14 07:37:08;;;;;;;3.45;2.28;;;;;;;24.73;50.43;100031.78;7654918;32;40086;-68
2023/07/14 07:41:26;;;;;;;3.45;2.60;;;;;;;24.67;48.35;100030.44;7645955;32;39526;-75
2023/07/14 07:45:48;;;;;;;5.87;2.70;;;;;;;25.26;47.63;100027.81;7647497;32;37089;-76
2023/07/14 07:50:05;;;;;;;5.53;2.75;;;;;;;24.96;47.79;100025.53;7650002;32;40044;-76
2023/07/14 07:54:21;;;;;;;4.70;2.55;;;;;;;25.23;48.12;100022.91;7633376;32;37927;-76
2023/07/14 07:58:37;;;;;;;10.75;3.17;;;;;;;25.24;46.94;100016.97;7632189;32;38091;-76
2023/07/14 08:02:53;;;;;;;3.78;2.40;;;;;;;25.20;46.64;100018.06;7645298;32;38164;-76
2023/07/14 08:07:13;;;;;;;4.57;2.50;;;;;;;25.74;45.63;100008.84;7658716;32;39359;-75
2023/07/14 08:11:30;;;;;;;4.22;2.45;;;;;;;25.92;45.41;100016.75;7654947;32;40506;-76
2023/07/14 08:15:46;;;;;;;3.35;2.33;;;;;;;26.11;44.19;100013.13;7655645;32;38003;-76
2023/07/14 08:20:07;;;;;;;4.12;2.53;;;;;;;26.18;44.66;100014.09;7657859;32;36603;-76
2023/07/14 08:24:24;;;;;;;5.10;2.20;;;;;;;26.21;43.61;100007.72;7659184;32;39433;-77
2023/07/14 08:28:40;;;;;;;3.08;2.20;;;;;;;26.23;43.23;100010.16;7658939;32;40813;-76
2023/07/14 08:32:58;;;;;;;3.83;2.50;;;;;;;26.39;43.56;100015.62;7659270;32;38873;-76
2023/07/14 08:37:14;;;;;;;3.42;2.20;;;;;;;26.79;41.00;100001.09;7659206;32;37832;-76
2023/07/14 08:41:33;;;;;;;3.40;1.95;;;;;;;27.05;40.61;99995.88;7658972;32;40238;-77
2023/07/14 08:46:14;;;;;;;3.65;2.33;;;;;;;27.09;40.36;99994.72;7657418;32;39874;-76
2023/07/14 08:50:32;;;;;;;4.65;2.28;;;;;;;27.59;39.71;99991.75;7656514;32;38599;-77
2023/07/14 08:55:10;;;;;;;3.03;2.40;;;;;;;27.54;37.71;99992.09;7658747;32;37773;-76
2023/07/14 08:59:32;;;;;;;3.17;2.40;;;;;;;27.94;39.13;100001.78;7652501;32;40127;-77
2023/07/14 09:03:53;;;;;;;9.88;2.72;;;;;;;28.20;38.52;100014.03;7658613;32;40781;-77
2023/07/14 09:08:11;;;;;;;4.12;2.28;;;;;;;28.19;39.00;100018.03;7677264;32;38737;-77
2023/07/14 09:12:53;;;;;;;4.00;2.17;;;;;;;28.55;37.44;100021.19;7661525;32;36693;-76
2023/07/14 09:17:43;;;;;;;3.25;2.10;;;;;;;28.91;39.09;100024.25;7658673;32;40167;-76
2023/07/14 09:21:59;;;;;;;4.15;2.50;;;;;;;28.99;38.64;100003.41;7657658;32;40249;-77
2023/07/14 09:26:34;;;;;;;3.70;2.40;;;;;;;29.32;38.48;100001.59;7658396;32;38041;-77
2023/07/14 09:30:52;;;;;;;4.62;2.60;;;;;;;29.34;37.48;99996.41;7658448;32;37087;-76
2023/07/14 09:35:20;;;;;;;4.05;2.55;;;;;;;29.62;38.58;100001.31;7656916;32;39208;-76
2023/07/14 09:39:42;;;;;;;7.55;2.42;;;;;;;29.76;39.84;100007.00;7658316;32;40816;-76
2023/07/14 09:44:01;;;;;;;9.35;2.45;;;;;;;29.98;37.23;99998.63;7658371;32;37887;-76
2023/07/14 09:48:30;;;;;;;6.07;2.00;;;;;;;30.06;36.57;99993.81;7658238;32;36742;-76
2023/07/14 09:52:55;;;;;;;3.10;2.22;;;;;;;30.21;35.21;99998.25;7658395;32;40070;-76
2023/07/14 09:57:12;;;;;;;5.20;2.22;;;;;;;30.26;36.06;99988.59;7658294;32;39966;-77
2023/07/14 10:01:59;;;;;;;3.58;2.30;;;;;;;30.06;36.75;99988.19;7657843;32;38053;-76
2023/07/14 10:06:25;;;;;;;2.83;2.08;;;;;;;30.65;37.22;99987.78;7658114;32;37815;-77
2023/07/14 10:10:43;;;;;;;2.87;2.10;;;;;;;31.14;36.24;99977.66;7656898;32;40190;-78
2023/07/14 10:15:00;;;;;;;4.00;2.37;;;;;;;30.95;34.96;99978.94;7656110;32;39653;-77
2023/07/14 10:19:18;;;;;;;6.12;2.33;;;;;;;30.31;35.83;99974.94;7656442;32;37935;-79
2023/07/14 10:23:35;;;;;;;6.03;2.40;;;;;;;30.88;34.45;99973.28;7657630;32;36832;-78
2023/07/14 10:28:10;;;;;;;6.00;2.45;;;;;;;30.86;34.21;99975.72;7657168;32;39365;-80
2023/07/14 10:32:51;;;;;;;3.17;2.20;;;;;;;31.24;32.71;99974.00;7657512;32;40765;-77
2023/07/14 10:37:39;;;;;;;3.60;2.40;;;;;;;31.51;33.22;99962.25;7657548;32;38027;-77
2023/07/14 10:41:56;;;;;;;13.18;2.30;;;;;;;32.05;35.37;99953.44;7653856;32;37494;-77
2023/07/14 10:46:21;;;;;;;3.67;1.98;;;;;;;31.94;32.93;99958.31;7655953;32;40011;-76
2023/07/14 10:50:52;;;;;;;6.22;2.75;;;;;;;32.02;32.00;99951.41;7656150;32;40558;-76
2023/07/14 10:55:31;;;;;;;4.87;2.67;;;;;;;31.71;33.86;99951.25;7656038;32;38780;-76
2023/07/14 10:59:54;;;;;;;4.70;2.20;;;;;;;31.75;31.48;99946.41;7656570;32;37786;-76
2023/07/14 11:04:34;;;;;;;3.72;2.08;;;;;;;31.51;31.01;99942.53;7655698;32;40124;-76
2023/07/14 11:08:55;;;;;;;4.22;2.12;;;;;;;31.19;31.74;99946.25;7655063;32;39876;-76
2023/07/14 11:13:30;;;;;;;5.65;1.92;;;;;;;30.70;31.87;99943.19;7655737;32;36787;-76
2023/07/14 11:18:18;;;;;;;2.90;2.10;;;;;;;31.26;31.27;99931.34;7644221;32;37015;-76
2023/07/14 11:22:46;;;;;;;4.43;2.10;;;;;;;31.47;30.45;99936.06;7640314;32;39282;-75
2023/07/14 11:27:28;;;;;;;3.22;2.00;;;;;;;31.39;30.02;99934.50;7648624;32;39656;-75
2023/07/14 11:31:52;;;;;;;4.22;1.83;;;;;;;31.47;28.57;99913.53;7642667;32;38747;-77
2023/07/14 11:36:19;;;;;;;6.50;1.90;;;;;;;31.90;28.74;99916.06;7645063;32;37133;-70
2023/07/14 11:40:40;;;;;;;4.18;1.98;;;;;;;32.32;28.32;99916.97;7649543;32;39343;-78
2023/07/14 11:45:00;;;;;;;3.45;2.17;;;;;;;32.44;30.22;99909.19;7651989;32;40749;-79
2023/07/14 11:49:36;;;;;;;3.10;1.90;;;;;;;32.71;27.30;99906.50;7653090;32;37861;-78
2023/07/14 11:54:12;;;;;;;3.20;1.80;;;;;;;32.87;27.61;99901.06;7655901;32;36844;-78
2023/07/14 11:58:30;;;;;;;7.37;2.15;;;;;;;32.69;27.80;99900.47;7657241;32;38987;-79
2023/07/14 12:02:49;;;;;;;3.58;1.90;;;;;;;32.27;27.31;99896.84;7651925;32;40836;-78
2023/07/14 12:07:22;;;;;;;3.42;1.67;;;;;;;32.84;26.73;99890.62;7640610;32;38173;-78
2023/07/14 12:11:38;;;;;;;3.10;2.05;;;;;;;32.84;26.91;99887.81;7631914;32;37171;-78
2023/07/14 12:16:01;;;;;;;7.57;1.90;;;;;;;32.20;27.94;99894.91;7634969;32;40085;-78
2023/07/14 12:20:34;;;;;;;6.95;2.10;;;;;;;32.51;26.48;99881.72;7641676;32;40563;-79
2023/07/14 12:25:19;;;;;;;5.45;2.00;;;;;;;32.49;26.90;99884.13;7642722;32;38437;-78
2023/07/14 12:29:35;;;;;;;5.18;2.30;;;;;;;32.16;26.52;99886.47;7643599;32;38095;-77
2023/07/14 12:34:32;;;;;;;2.60;1.98;;;;;;;32.21;26.52;99881.63;7643562;32;39327;-78
2023/07/14 12:38:51;;;;;;;3.60;1.75;;;;;;;32.46;25.59;99881.34;7641535;32;40768;-79
2023/07/14 12:43:27;;;;;;;3.00;2.03;;;;;;;32.40;25.19;99871.75;7642202;32;38081;-79
2023/07/14 12:47:48;;;;;;;3.15;1.70;;;;;;;32.25;28.49;99871.09;7643690;32;36373;-79
2023/07/14 12:52:13;;;;;;;2.60;1.80;;;;;;;31.73;27.03;99875.53;7641991;32;39327;-78
2023/07/14 12:56:32;;;;;;;3.85;1.90;;;;;;;32.31;27.17;99863.78;7642083;32;40832;-79
2023/07/14 13:00:56;;;;;;;4.68;1.95;;;;;;;32.26;27.48;99862.22;7642656;32;37553;-79
2023/07/14 13:05:14;;;;;;;2.90;1.70;;;;;;;32.75;28.44;99860.09;7641892;32;36827;-77
2023/07/14 13:09:34;;;;;;;3.28;1.87;;;;;;;32.61;27.71;99859.44;7643043;32;39650;-77
2023/07/14 13:13:55;;;;;;;3.10;1.75;;;;;;;32.54;24.82;99849.81;7644164;32;40684;-78
2023/07/14 13:18:32;;;;;;;3.35;1.70;;;;;;;32.81;25.32;99849.13;7643276;32;37814;-76
2023/07/14 13:23:11;;;;;;;2.33;1.80;;;;;;;33.22;24.91;99841.72;7649795;32;37053;-78
2023/07/14 13:27:27;;;;;;;4.82;1.87;;;;;;;33.00;23.77;99839.19;7642579;32;39896;-78
2023/07/14 13:31:45;;;;;;;2.22;1.65;;;;;;;33.03;25.95;99829.06;7645178;32;40570;-78
2023/07/14 13:36:07;;;;;;;6.72;1.98;;;;;;;33.30;25.60;99832.72;7640533;32;37824;-79
2023/07/14 13:40:26;;;;;;;3.33;1.90;;;;;;;33.54;24.48;99835.59;7641389;32;36117;-76
2023/07/14 13:44:50;;;;;;;2.47;1.90;;;;;;;33.01;24.18;99825.87;7642003;32;39844;-77
2023/07/14 13:49:07;;;;;;;3.65;1.77;;;;;;;33.51;23.56;99830.78;7639895;32;40305;-76
2023/07/14 13:53:24;;;;;;;4.03;1.73;;;;;;;34.06;24.18;99831.50;7641682;32;38719;-77
2023/07/14 13:57:40;;;;;;;4.05;1.90;;;;;;;34.11;24.16;99828.19;7641554;32;37255;-76
2023/07/14 14:02:23;;;;;;;2.85;1.80;;;;;;;33.67;23.39;99828.16;7645170;32;39263;-76
2023/07/14 14:06:41;;;;;;;5.55;2.00;;;;;;;33.88;23.57;99820.53;7645201;32;40074;-77
2023/07/14 14:10:58;;;;;;;3.10;1.85;;;;;;;33.66;24.25;99815.19;7642926;32;39351;-78
2023/07/14 14:15:19;;;;;;;4.62;2.22;;;;;;;33.63;25.21;99820.91;7644310;32;37488;-77
2023/07/14 14:19:35;;;;;;;4.50;1.70;;;;;;;33.44;24.52;99817.59;7646066;32;39870;-78
2023/07/14 14:23:51;;;;;;;2.55;1.85;;;;;;;33.43;26.13;99823.69;7648887;32;40718;-78
2023/07/14 14:28:08;;;;;;;3.37;2.00;;;;;;;32.79;27.05;99820.53;7644458;32;37954;-77
2023/07/14 14:32:25;;;;;;;7.45;1.70;;;;;;;32.41;26.94;99816.91;7646529;32;37139;-78
2023/07/14 14:36:41;;;;;;;5.47;2.10;;;;;;;33.52;26.49;99803.34;7644098;32;39015;-78
2023/07/14 14:41:00;;;;;;;6.87;2.03;;;;;;;33.25;25.82;99807.78;7651106;32;39964;-78
2023/07/14 14:45:22;;;;;;;3.33;1.83;;;;;;;33.42;26.78;99805.13;7653106;32;37622;-77
2023/07/14 14:49:38;;;;;;;5.28;1.90;;;;;;;33.22;26.55;99807.84;7646719;32;36965;-78
2023/07/14 14:53:55;;;;;;;5.12;1.95;;;;;;;33.19;27.54;99797.41;7646476;32;39478;-78
2023/07/14 14:58:25;;;;;;;3.92;1.80;;;;;;;33.13;29.60;99799.88;7639078;32;40577;-78
2023/07/14 15:02:42;;;;;;;3.08;2.00;;;;;;;33.09;32.18;99793.50;7648744;32;37950;-77
2023/07/14 15:06:58;;;;;;;3.50;2.30;;;;;;;33.35;29.88;99793.94;7655765;32;37797;-77
2023/07/14 15:11:17;;;;;;;3.05;1.62;;;;;;;33.72;26.95;99790.13;7654154;32;40150;-77
2023/07/14 15:15:35;;;;;;;2.87;1.77;;;;;;;34.14;25.07;99787.72;7659481;32;39891;-77
2023/07/14 15:19:52;;;;;;;2.62;1.67;;;;;;;33.93;25.93;99785.31;7658338;32;36878;-77
2023/07/14 15:24:11;;;;;;;5.32;1.75;;;;;;;33.57;27.85;99780.25;7659730;32;38545;-77
2023/07/14 15:28:28;;;;;;;2.65;1.80;;;;;;;33.33;27.49;99779.44;7658411;32;39324;-78
2023/07/14 15:32:44;;;;;;;3.67;1.90;;;;;;;33.07;25.97;99781.81;7655776;32;39907;-78
2023/07/14 15:37:01;;;;;;;4.25;1.92;;;;;;;32.98;28.42;99788.00;7649211;32;38730;-71
2023/07/14 15:41:21;;;;;;;6.07;2.35;;;;;;;32.91;30.01;99777.59;7651109;32;36019;-83
2023/07/14 15:45:37;;;;;;;3.05;2.22;;;;;;;33.15;27.88;99780.53;7648676;32;39208;-82
2023/07/14 15:49:53;;;;;;;7.80;2.12;;;;;;;33.39;26.47;99772.06;7642075;32;40555;-82
2023/07/14 15:54:26;;;;;;;4.80;2.03;;;;;;;33.31;27.20;99769.38;7641855;32;38743;-84
2023/07/14 15:58:42;;;;;;;4.80;1.80;;;;;;;33.41;26.99;99773.25;7643026;32;37035;-83
2023/07/14 16:02:59;;;;;;;2.70;1.87;;;;;;;33.29;29.52;99768.22;7641948;32;38996;-83
2023/07/14 16:07:17;;;;;;;4.30;2.10;;;;;;;33.42;28.31;99760.69;7642863;32;40007;-83
2023/07/14 16:11:35;;;;;;;3.50;2.20;;;;;;;33.18;27.79;99770.38;7643763;32;38480;-82
2023/07/14 16:15:52;;;;;;;7.65;2.47;;;;;;;33.06;28.00;99768.91;7644627;32;37637;-84
2023/07/14 16:20:17;;;;;;;6.72;2.37;;;;;;;32.87;29.43;99765.53;7643544;32;39097;-84
2023/07/14 16:24:37;;;;;;;5.72;2.42;;;;;;;32.67;29.00;99756.97;7642941;32;40817;-83
2023/07/14 16:28:54;;;;;;;5.28;2.50;;;;;;;32.55;28.73;99751.88;7642066;32;38468;-83
2023/07/14 16:33:12;;;;;;;3.70;2.10;;;;;;;32.31;28.35;99756.59;7643681;32;38025;-83
2023/07/14 16:37:30;;;;;;;7.93;2.37;;;;;;;32.25;28.93;99758.28;7644101;32;39462;-83
2023/07/14 16:41:47;;;;;;;3.37;2.12;;;;;;;32.17;29.94;99758.38;7642804;32;39994;-84
2023/07/14 16:46:03;;;;;;;5.15;2.67;;;;;;;32.12;30.54;99750.37;7642504;32;38442;-83
2023/07/14 16:50:21;;;;;;;4.03;2.33;;;;;;;32.28;30.82;99741.31;7642828;32;36873;-84
2023/07/14 16:54:38;;;;;;;5.65;2.45;;;;;;;32.27;30.30;99741.72;7643332;32;38306;-82
2023/07/14 16:58:54;;;;;;;3.12;1.87;;;;;;;32.28;30.07;99754.63;7641632;32;39527;-82
2023/07/14 17:03:28;;;;;;;3.83;2.10;;;;;;;32.29;29.36;99762.66;7643508;32;38646;-85
2023/07/14 17:07:44;;;;;;;4.40;2.03;;;;;;;31.91;30.26;99767.47;7643423;32;37023;-84
2023/07/14 17:12:01;;;;;;;5.60;2.65;;;;;;;31.76;31.55;99764.00;7642882;32;39027;-84
2023/07/14 17:16:18;;;;;;;18.77;6.97;;;;;;;31.55;33.09;99765.03;7641336;32;40036;-83
2023/07/14 17:20:35;;;;;;;6.75;3.87;;;;;;;31.42;35.56;99759.84;7643977;32;38015;-84
2023/07/14 17:24:52;;;;;;;6.80;2.55;;;;;;;31.21;37.00;99762.84;7642526;32;37536;-82
2023/07/14 17:29:16;;;;;;;3.72;2.20;;;;;;;31.02;38.25;99759.34;7641676;32;39400;-83
2023/07/14 17:33:33;;;;;;;4.55;2.45;;;;;;;30.84;39.27;99765.06;7641470;32;39048;-83
2023/07/14 17:37:53;;;;;;;4.80;2.30;;;;;;;30.77;40.16;99769.91;7654978;32;38719;-82
2023/07/14 17:42:17;;;;;;;3.83;2.28;;;;;;;30.69;41.13;99758.69;7643819;32;37780;-82
2023/07/14 17:46:34;;;;;;;3.67;2.30;;;;;;;30.77;41.47;99769.91;7641443;32;39470;-83
2023/07/14 17:50:52;;;;;;;4.68;2.12;;;;;;;30.47;42.42;99774.06;7641785;32;40794;-82
2023/07/14 17:55:18;;;;;;;6.32;2.90;;;;;;;30.38;42.47;99776.53;7640696;32;37155;-83
2023/07/14 17:59:34;;;;;;;7.18;3.00;;;;;;;30.15;41.74;99770.16;7646560;32;37095;-83
2023/07/14 18:03:51;;;;;;;4.80;2.70;;;;;;;30.01;42.15;99769.38;7655231;32;40150;-83
2023/07/14 18:08:10;;;;;;;6.65;2.90;;;;;;;29.86;42.02;99775.03;7644804;32;40805;-83
2023/07/14 18:12:28;;;;;;;10.55;2.70;;;;;;;29.62;42.44;99781.44;7641062;32;37900;-82
2023/07/14 18:16:44;;;;;;;7.15;2.40;;;;;;;29.18;43.24;99781.44;7641634;32;36379;-82
2023/07/14 18:21:02;;;;;;;5.35;2.70;;;;;;;29.09;43.05;99774.56;7642516;32;40357;-83
2023/07/14 18:25:22;;;;;;;7.37;2.53;;;;;;;28.86;42.89;99777.72;7638593;32;39943;-82
2023/07/14 18:29:40;;;;;;;10.10;2.60;;;;;;;28.49;43.60;99790.75;7652400;32;36564;-81
2023/07/14 18:33:56;;;;;;;8.32;2.55;;;;;;;28.48;44.10;99789.16;7651067;32;38524;-81
2023/07/14 18:38:16;;;;;;;5.60;2.50;;;;;;;28.21;44.98;99797.03;7647315;32;39373;-82
2023/07/14 18:42:32;;;;;;;3.78;2.60;;;;;;;28.05;44.98;99794.53;7640870;32;40835;-82
2023/07/14 18:46:48;;;;;;;7.60;2.60;;;;;;;27.97;46.22;99792.88;7646686;32;37852;-82
2023/07/14 18:51:21;;;;;;;3.90;2.40;;;;;;;27.70;46.27;99796.69;7645805;32;38285;-81
2023/07/14 18:55:41;;;;;;;5.55;2.62;;;;;;;27.51;45.26;99803.31;7653119;32;39913;-81
2023/07/14 18:59:57;;;;;;;4.65;2.83;;;;;;;27.34;45.75;99813.16;7645754;32;40564;-80
2023/07/14 19:04:18;;;;;;;17.83;3.17;;;;;;;27.28;46.33;99809.09;7645821;32;37978;-85
2023/07/14 19:08:35;;;;;;;10.45;2.83;;;;;;;27.07;46.70;99817.25;7651300;32;37160;-82
2023/07/14 19:12:51;;;;;;;3.47;2.40;;;;;;;26.91;46.00;99823.88;7647749;32;39786;-84
2023/07/14 19:17:13;;;;;;;5.72;2.85;;;;;;;26.79;45.41;99824.13;7643094;32;40514;-82
2023/07/14 19:21:31;;;;;;;;;;;;;;;26.85;45.74;99822.59;7648500;32;38758;-84
2023/07/14 19:25:47;;;;;;;8.13;2.53;;;;;;;26.66;47.07;99817.16;7651761;32;37673;-83
2023/07/14 19:30:12;;;;;;;4.95;2.60;;;;;;;26.56;47.70;99819.44;7645062;32;40150;-86
2023/07/14 19:34:36;;;;;;;5.47;2.55;;;;;;;26.42;49.06;99810.84;7643736;32;39901;-81
2023/07/14 19:38:52;;;;;;;6.05;2.65;;;;;;;26.40;49.24;99816.00;7646890;32;37886;-84
2023/07/14 19:43:17;;;;;;;7.15;2.87;;;;;;;26.16;49.91;99823.66;7647119;32;37735;-85
2023/07/14 19:47:33;;;;;;;7.03;2.85;;;;;;;26.14;50.20;99816.84;7647909;32;41171;-87
2023/07/14 19:51:55;;;;;;;8.90;2.90;;;;;;;26.08;50.64;99826.72;7651953;32;39978;-83
2023/07/14 19:56:11;;;;;;;6.45;3.00;;;;;;;26.07;50.51;99819.53;7651341;32;38382;-82
2023/07/14 20:00:31;;;;;;;5.35;2.90;;;;;;;25.97;50.17;99824.56;7640215;32;37220;-83
2023/07/14 20:04:47;;;;;;;4.00;2.60;;;;;;;26.10;49.81;99813.22;7642682;32;40185;-85
2023/07/14 20:09:06;;;;;;;5.82;3.00;;;;;;;25.83;50.65;99821.53;7667696;32;40096;-84
2023/07/14 20:13:25;;;;;;;3.62;2.83;;;;;;;25.75;50.55;99812.25;7646917;32;37879;-83
2023/07/14 20:17:41;;;;;;;7.65;3.25;;;;;;;25.82;50.07;99814.34;7659620;32;36792;-83
2023/07/14 20:21:58;;;;;;;4.62;2.80;;;;;;;25.82;49.22;99815.16;7644631;32;40286;-84
2023/07/14 20:26:18;;;;;;;4.87;2.80;;;;;;;25.74;49.05;99810.63;7636116;32;41021;-82